Decoded Metar for KBWW ( in ) (IATA:) | Meteo·Mobile Aviation Weather
aviador You're here:

KBWW Decoded Metar

in
Report Time2018-10-23 22:35:00
UTC Time2018-10-23 22:44:07
Flight Rules vfr VFR
Wind160° at 24 Gusting to 29 kt
W.Decomp.*RWY 13: 20.8 kt HW 12.0 kt RCW
W.Rank160° ranks 8
Current wind is above 160° avg. (12.3)
Visibility9999 m
Phenomena:N/A
Clouds:N/A
Expected CloudBase > 6,800 ft AGL from Temp-Dew spread
CeilingNone
Temp15°C
Dew Point-2°C (31% RH)
AAT4.1°C
QNH1015 hPa
Raw Report
METAR KBWW 232235Z AUTO 16024G29KT 10SM CLR 15/M02 A2997 RMK AO2=

Extra information for KBWW:More info

Social comments